createdAt,value
2023-01-18T00:01:36.781Z,-2.26
2023-01-18T00:06:28.697Z,-1.79
2023-01-18T00:11:20.343Z,-2.05
2023-01-18T00:16:15.246Z,-1.38
2023-01-18T00:21:10.695Z,-1.37
2023-01-18T00:26:08.412Z,-1.38
2023-01-18T00:31:00.354Z,-2.45
2023-01-18T00:35:59.422Z,-2.17
2023-01-18T00:40:51.447Z,-2.03
2023-01-18T00:45:43.205Z,-1.42
2023-01-18T00:50:34.856Z,-1.90
2023-01-18T00:55:27.014Z,-2.29
2023-01-18T01:00:19.028Z,-2.16
2023-01-18T01:05:37.889Z,-1.54
2023-01-18T01:10:29.556Z,-2.75
2023-01-18T01:15:39.754Z,-1.40
2023-01-18T01:20:49.989Z,-1.84
2023-01-18T01:26:01.581Z,-1.74
2023-01-18T01:30:57.798Z,-1.45
2023-01-18T01:35:49.905Z,-1.78
2023-01-18T01:40:41.543Z,-1.47
2023-01-18T01:45:33.861Z,-1.47
2023-01-18T01:50:35.857Z,-2.03
2023-01-18T01:55:34.932Z,-1.81
2023-01-18T02:00:26.954Z,-1.48
2023-01-18T02:05:19.040Z,-1.96
2023-01-18T02:10:11.252Z,-2.01
2023-01-18T02:15:03.443Z,-1.47
2023-01-18T02:20:19.574Z,-1.45
2023-01-18T02:25:33.253Z,-1.47
2023-01-18T02:31:02.148Z,-1.51
2023-01-18T02:35:56.584Z,-2.80
2023-01-18T02:40:57.353Z,-1.52
2023-01-18T02:46:08.671Z,-1.53
2023-01-18T02:51:00.348Z,-1.91
2023-01-18T02:56:13.051Z,-2.17
2023-01-18T03:01:07.485Z,-1.54
2023-01-18T03:06:02.236Z,-1.52
2023-01-18T03:11:04.781Z,-1.90
2023-01-18T03:16:22.700Z,-1.88
2023-01-18T03:21:14.431Z,-2.39
2023-01-18T03:26:12.055Z,-1.59
2023-01-18T03:31:28.737Z,-1.68
2023-01-18T03:36:25.397Z,-1.47
2023-01-18T03:41:18.588Z,-1.51
2023-01-18T03:46:11.876Z,-2.34
2023-01-18T03:51:21.093Z,-1.98
2023-01-18T03:56:39.109Z,-1.94
2023-01-18T04:01:31.502Z,-2.44
2023-01-18T04:06:25.705Z,-2.31
2023-01-18T04:11:18.027Z,-2.08
2023-01-18T04:16:09.941Z,-1.69
2023-01-18T04:21:01.594Z,-1.49
2023-01-18T04:25:53.213Z,-2.23
2023-01-18T04:30:45.607Z,-2.56
2023-01-18T04:35:37.472Z,-1.77
2023-01-18T04:40:29.010Z,-1.68
2023-01-18T04:45:20.934Z,-1.74
2023-01-18T04:50:12.665Z,-2.00
2023-01-18T04:55:04.606Z,-2.30
2023-01-18T04:59:56.263Z,-2.43
2023-01-18T05:04:48.082Z,-2.06
2023-01-18T05:09:39.700Z,-1.70
2023-01-18T05:14:31.340Z,-1.63
2023-01-18T05:19:22.933Z,-2.23
2023-01-18T05:24:14.580Z,-1.61
2023-01-18T05:29:06.475Z,-1.74
2023-01-18T05:33:58.031Z,-1.71
2023-01-18T05:38:49.688Z,-2.69
2023-01-18T05:43:41.430Z,-2.64
2023-01-18T05:48:33.388Z,-1.86
2023-01-18T05:53:25.748Z,-2.50
2023-01-18T05:58:17.369Z,-2.06
2023-01-18T06:03:10.765Z,-2.04
2023-01-18T06:08:02.678Z,-2.02
2023-01-18T06:12:54.329Z,-2.45
2023-01-18T06:17:49.358Z,-2.24
2023-01-18T06:22:41.240Z,-2.44
2023-01-18T06:27:32.832Z,-2.06
2023-01-18T06:32:24.473Z,-2.50
2023-01-18T06:37:16.112Z,-2.12
2023-01-18T06:42:07.684Z,-2.17
2023-01-18T06:46:59.308Z,-2.71
2023-01-18T06:51:50.894Z,-2.20
2023-01-18T06:56:42.840Z,-2.39
2023-01-18T07:01:34.473Z,-2.96
2023-01-18T07:06:26.262Z,-2.26
2023-01-18T07:11:18.808Z,-2.34
2023-01-18T07:16:17.953Z,-2.54
2023-01-18T07:21:10.707Z,-2.10
2023-01-18T07:26:04.206Z,-2.71
2023-01-18T07:30:55.793Z,-2.04
2023-01-18T07:35:47.360Z,-2.04
2023-01-18T07:40:39.042Z,-2.02
2023-01-18T07:45:30.663Z,-1.97
2023-01-18T07:50:22.548Z,-2.05
2023-01-18T07:55:14.240Z,-3.01
2023-01-18T08:00:11.119Z,-2.01
2023-01-18T08:05:05.892Z,-1.75
2023-01-18T08:09:58.044Z,-1.63
2023-01-18T08:14:49.663Z,-1.43
2023-01-18T08:19:41.363Z,-1.31
2023-01-18T08:24:32.943Z,-1.28
2023-01-18T08:29:24.656Z,-1.31
2023-01-18T08:34:16.286Z,-0.93
2023-01-18T08:39:07.955Z,-0.67
2023-01-18T08:43:59.882Z,-0.45
2023-01-18T08:48:54.871Z,-0.45
2023-01-18T08:53:47.469Z,0.08
2023-01-18T08:58:39.044Z,-0.35
2023-01-18T09:03:30.611Z,0.03
2023-01-18T09:08:22.804Z,-0.24
2023-01-18T09:13:14.602Z,-0.01
2023-01-18T09:18:08.057Z,-0.41
2023-01-18T09:23:04.787Z,0.01
2023-01-18T09:27:56.412Z,-0.03
2023-01-18T09:32:48.004Z,0.44
2023-01-18T09:37:39.583Z,0.52
2023-01-18T09:42:37.849Z,0.72
2023-01-18T09:47:34.415Z,0.40
2023-01-18T09:52:32.358Z,1.17
2023-01-18T09:57:30.161Z,1.26
2023-01-18T10:02:24.372Z,0.71
2023-01-18T10:07:17.974Z,1.35
2023-01-18T10:12:24.739Z,1.53
2023-01-18T10:17:28.923Z,0.86
2023-01-18T10:22:34.239Z,1.88
2023-01-18T10:27:37.591Z,1.87
2023-01-18T10:32:31.462Z,1.44
2023-01-18T10:37:45.442Z,2.06
2023-01-18T10:42:48.801Z,1.83
2023-01-18T10:47:40.410Z,2.46
2023-01-18T10:52:32.603Z,2.41
2023-01-18T10:57:32.150Z,2.44
2023-01-18T11:02:29.526Z,2.57
2023-01-18T11:07:25.654Z,2.65
2023-01-18T11:12:38.510Z,2.79
2023-01-18T11:17:30.964Z,2.67
2023-01-18T11:22:24.390Z,2.39
2023-01-18T11:27:23.102Z,3.10
2023-01-18T11:32:30.336Z,2.45
2023-01-18T11:37:27.875Z,3.13
2023-01-18T11:42:36.623Z,3.23
2023-01-18T11:47:37.675Z,3.06
2023-01-18T11:52:51.742Z,3.24
2023-01-18T11:57:44.928Z,3.46
2023-01-18T12:02:45.494Z,3.87
2023-01-18T12:08:05.533Z,3.56
2023-01-18T12:13:31.342Z,3.63
2023-01-18T12:18:28.869Z,3.65
2023-01-18T12:23:43.610Z,3.66
2023-01-18T12:29:12.899Z,3.74
2023-01-18T12:34:18.680Z,3.74
2023-01-18T12:39:47.596Z,3.65
2023-01-18T12:45:00.829Z,4.16
2023-01-18T12:49:59.326Z,3.99
2023-01-18T12:54:56.011Z,4.09
2023-01-18T13:00:09.135Z,4.17
2023-01-18T13:05:43.148Z,4.19
2023-01-18T13:10:36.479Z,4.43
2023-01-18T13:15:52.541Z,4.03
2023-01-18T13:21:03.059Z,4.41
2023-01-18T13:26:14.850Z,4.00
2023-01-18T13:31:06.767Z,4.54
2023-01-18T13:36:09.961Z,4.17
2023-01-18T13:41:04.785Z,4.34
2023-01-18T13:46:08.603Z,4.36
2023-01-18T13:51:00.873Z,4.48
2023-01-18T13:56:04.895Z,4.47
2023-01-18T14:01:05.488Z,3.97
2023-01-18T14:05:58.472Z,4.27
2023-01-18T14:10:53.656Z,4.69
2023-01-18T14:15:52.003Z,4.76
2023-01-18T14:21:25.807Z,4.70
2023-01-18T14:26:19.348Z,4.17
2023-01-18T14:31:18.517Z,4.54
2023-01-18T14:36:24.469Z,4.53
2023-01-18T14:41:17.916Z,4.43
2023-01-18T14:46:16.535Z,3.66
2023-01-18T14:51:08.172Z,3.58
2023-01-18T14:56:18.329Z,3.61
2023-01-18T15:01:31.639Z,3.72
2023-01-18T15:06:30.339Z,3.27
2023-01-18T15:11:23.613Z,3.26
2023-01-18T15:16:24.261Z,2.96
2023-01-18T15:21:21.519Z,3.03
2023-01-18T15:26:13.640Z,3.06
2023-01-18T15:31:15.353Z,2.91
2023-01-18T15:36:09.892Z,2.77
2023-01-18T15:41:10.981Z,2.34
2023-01-18T15:46:08.865Z,2.46
2023-01-18T15:51:07.374Z,2.35
2023-01-18T15:56:05.066Z,2.19
2023-01-18T16:01:00.351Z,1.22
2023-01-18T16:05:58.090Z,1.94
2023-01-18T16:10:55.626Z,0.55
2023-01-18T16:16:14.041Z,1.71
2023-01-18T16:21:11.967Z,0.73
2023-01-18T16:26:04.834Z,1.03
2023-01-18T16:30:56.580Z,0.88
2023-01-18T16:35:48.892Z,1.30
2023-01-18T16:40:44.043Z,0.62
2023-01-18T16:45:38.999Z,1.18
2023-01-18T16:50:31.291Z,0.92
2023-01-18T16:55:23.098Z,1.12
2023-01-18T17:00:19.280Z,0.77
2023-01-18T17:05:12.036Z,1.04
2023-01-18T17:10:18.780Z,0.34
2023-01-18T17:15:10.858Z,1.10
2023-01-18T17:20:16.362Z,0.29
2023-01-18T17:25:08.378Z,0.70
2023-01-18T17:30:00.646Z,0.36
2023-01-18T17:34:52.305Z,0.39
2023-01-18T17:40:02.243Z,0.07
2023-01-18T17:45:02.562Z,-0.41
2023-01-18T17:49:54.420Z,0.30
2023-01-18T17:54:46.080Z,0.76
2023-01-18T17:59:37.605Z,0.70
2023-01-18T18:04:30.624Z,0.68
2023-01-18T18:09:22.239Z,0.25
2023-01-18T18:14:13.800Z,-1.13
2023-01-18T18:19:05.938Z,0.15
2023-01-18T18:23:58.566Z,0.38
2023-01-18T18:28:50.245Z,0.24
2023-01-18T18:33:42.502Z,0.10
2023-01-18T18:38:34.332Z,-0.33
2023-01-18T18:43:26.193Z,-0.13
2023-01-18T18:48:17.995Z,-0.56
2023-01-18T18:53:09.744Z,-0.53
2023-01-18T18:58:01.643Z,-0.92
2023-01-18T19:03:02.382Z,-0.69
2023-01-18T19:07:58.249Z,-0.17
2023-01-18T19:12:51.967Z,-0.92
2023-01-18T19:17:43.728Z,-0.41
2023-01-18T19:22:38.127Z,-0.41
2023-01-18T19:27:30.145Z,-0.01
2023-01-18T19:32:22.003Z,0.06
2023-01-18T19:37:13.866Z,-0.48
2023-01-18T19:42:06.864Z,0.03
2023-01-18T19:46:58.524Z,-0.78
2023-01-18T19:51:50.307Z,-0.08
2023-01-18T19:56:41.937Z,-0.01
2023-01-18T20:01:36.791Z,-0.52
2023-01-18T20:06:28.876Z,-0.10
2023-01-18T20:11:20.584Z,-0.26
2023-01-18T20:16:12.317Z,-0.10
2023-01-18T20:21:14.193Z,0.12
2023-01-18T20:26:06.420Z,-0.62
2023-01-18T20:30:59.691Z,-0.57
2023-01-18T20:35:52.996Z,-0.39
2023-01-18T20:40:44.682Z,-0.10
2023-01-18T20:45:36.421Z,-0.09
2023-01-18T20:50:28.303Z,-0.37
2023-01-18T20:55:20.561Z,-0.15
2023-01-18T21:00:13.254Z,0.13
2023-01-18T21:05:05.372Z,-0.16
2023-01-18T21:09:57.050Z,-0.25
2023-01-18T21:14:48.669Z,0.01
2023-01-18T21:19:47.489Z,-0.35
2023-01-18T21:24:39.344Z,-0.08
2023-01-18T21:29:30.923Z,-0.04
2023-01-18T21:34:22.464Z,0.09
2023-01-18T21:39:18.485Z,0.36
2023-01-18T21:44:30.844Z,0.36
2023-01-18T21:50:11.443Z,-0.61
2023-01-18T21:54:52.633Z,-0.21
2023-01-18T21:59:45.468Z,-0.33
2023-01-18T22:04:56.916Z,-0.02
2023-01-18T22:10:03.129Z,-0.73
2023-01-18T22:14:57.106Z,0.04
2023-01-18T22:19:48.814Z,-1.27
2023-01-18T22:24:40.563Z,0.15
2023-01-18T22:29:32.784Z,0.63
2023-01-18T22:34:24.402Z,-0.79
2023-01-18T22:39:16.463Z,0.00
2023-01-18T22:44:08.430Z,0.16
2023-01-18T22:49:00.125Z,0.58
2023-01-18T22:53:52.192Z,0.58
2023-01-18T22:58:45.158Z,0.17
2023-01-18T23:03:36.998Z,0.59
2023-01-18T23:08:38.392Z,-0.30
2023-01-18T23:13:29.909Z,0.25
2023-01-18T23:18:21.430Z,0.69
2023-01-18T23:23:12.984Z,0.32
2023-01-18T23:28:05.066Z,-0.09
2023-01-18T23:32:57.080Z,0.65
2023-01-18T23:37:48.662Z,0.37
2023-01-18T23:42:58.824Z,-0.06
2023-01-18T23:48:09.001Z,0.32
2023-01-18T23:53:19.809Z,-0.36
2023-01-18T23:58:11.689Z,-0.14
